createdAt,value
2023-02-08T00:01:11.916Z,23.73
2023-02-08T00:03:55.529Z,22.15
2023-02-08T00:06:59.308Z,20.45
2023-02-08T00:10:14.990Z,21.27
2023-02-08T00:12:50.801Z,22.33
2023-02-08T00:15:31.888Z,22.38
2023-02-08T00:18:12.239Z,22.42
2023-02-08T00:21:34.217Z,22.27
2023-02-08T00:24:50.292Z,20.20
2023-02-08T00:27:26.867Z,22.25
2023-02-08T00:30:09.617Z,20.35
2023-02-08T00:32:38.308Z,21.83
2023-02-08T00:35:18.325Z,23.15
2023-02-08T00:38:20.910Z,22.80
2023-02-08T00:41:17.831Z,22.33
2023-02-08T00:47:19.341Z,21.50
2023-02-08T00:50:17.097Z,20.58
2023-02-08T00:53:04.258Z,23.48
2023-02-08T00:55:52.174Z,23.55
2023-02-08T00:58:31.124Z,22.85
2023-02-08T01:01:18.377Z,22.33
2023-02-08T01:07:35.138Z,22.10
2023-02-08T01:10:57.193Z,19.02
2023-02-08T01:14:13.980Z,19.00
2023-02-08T01:17:18.506Z,18.95
2023-02-08T01:20:36.868Z,19.60
2023-02-08T01:23:46.305Z,18.55
2023-02-08T01:27:02.532Z,17.40
2023-02-08T01:30:14.289Z,18.30
2023-02-08T01:33:58.757Z,17.73
2023-02-08T01:44:05.332Z,17.25
2023-02-08T01:47:23.312Z,18.98
2023-02-08T01:50:12.363Z,20.30
2023-02-08T01:53:20.756Z,18.27
2023-02-08T01:58:55.435Z,17.95
2023-02-08T02:02:18.495Z,16.58
2023-02-08T02:06:44.224Z,16.55
2023-02-08T02:10:53.466Z,18.23
2023-02-08T02:13:52.506Z,16.80
2023-02-08T02:29:20.192Z,19.65
2023-02-08T08:28:13.419Z,23.73
2023-02-08T08:51:03.239Z,19.23
2023-02-08T08:58:21.021Z,18.75
2023-02-08T09:01:48.439Z,20.20
2023-02-08T09:04:31.770Z,20.80
2023-02-08T09:24:24.013Z,21.67
2023-02-08T09:27:27.409Z,24.35
2023-02-08T09:30:45.994Z,22.77
2023-02-08T09:37:28.674Z,26.50
2023-02-08T09:40:40.086Z,29.65
2023-02-08T09:43:51.586Z,26.88
2023-02-08T09:46:33.896Z,29.38
2023-02-08T09:57:32.683Z,28.52
2023-02-08T10:00:13.349Z,28.85
2023-02-08T10:02:45.206Z,26.98
2023-02-08T10:05:16.756Z,27.92
2023-02-08T10:07:45.573Z,27.15
2023-02-08T10:10:21.211Z,29.13
2023-02-08T10:13:02.093Z,25.65
2023-02-08T10:15:39.531Z,27.00
2023-02-08T10:18:37.776Z,25.48
2023-02-08T10:21:21.933Z,25.30
2023-02-08T10:24:31.196Z,25.38
2023-02-08T10:27:07.335Z,24.92
2023-02-08T10:30:06.904Z,23.30
2023-02-08T10:32:48.953Z,24.15
2023-02-08T10:35:24.643Z,23.08
2023-02-08T10:37:54.261Z,25.73
2023-02-08T10:40:32.744Z,24.42
2023-02-08T10:43:12.467Z,23.20
2023-02-08T10:45:50.848Z,23.10
2023-02-08T10:48:30.874Z,26.02
2023-02-08T10:51:00.081Z,24.17
2023-02-08T10:53:29.529Z,24.48
2023-02-08T10:56:11.318Z,25.05
2023-02-08T10:58:40.325Z,24.20
2023-02-08T11:01:28.897Z,23.88
2023-02-08T11:04:10.916Z,22.63
2023-02-08T11:10:35.705Z,23.50
2023-02-08T11:13:23.482Z,22.58
2023-02-08T11:15:54.399Z,20.58
2023-02-08T11:18:37.879Z,19.85
2023-02-08T11:21:33.605Z,19.48
2023-02-08T11:24:32.927Z,16.73
2023-02-08T11:27:06.111Z,13.82
2023-02-08T11:29:37.758Z,12.50
2023-02-08T11:32:26.639Z,10.90
2023-02-08T11:35:27.380Z,10.23
2023-02-08T11:38:00.148Z,10.27
2023-02-08T11:40:34.661Z,12.98
2023-02-08T11:43:10.017Z,10.30
2023-02-08T11:45:39.275Z,11.00
2023-02-08T11:48:29.275Z,12.15
2023-02-08T11:51:02.058Z,16.80
2023-02-08T11:53:49.704Z,18.98
2023-02-08T11:56:32.363Z,17.92
2023-02-08T11:59:05.120Z,19.65
2023-02-08T12:01:40.876Z,19.13
2023-02-08T12:04:15.054Z,19.50
2023-02-08T12:07:18.968Z,19.10
2023-02-08T12:10:25.320Z,19.67
2023-02-08T12:13:10.499Z,16.98
2023-02-08T12:15:59.333Z,15.52
2023-02-08T12:19:01.231Z,16.77
2023-02-08T12:21:37.121Z,14.80
2023-02-08T12:24:17.764Z,13.07
2023-02-08T12:27:19.343Z,12.15
2023-02-08T12:29:57.310Z,11.30
2023-02-08T12:32:42.882Z,10.93
2023-02-08T12:36:01.395Z,12.00
2023-02-08T12:39:54.462Z,12.30
2023-02-08T12:42:54.025Z,13.35
2023-02-08T12:49:48.735Z,12.77
2023-02-08T12:52:32.091Z,12.18
2023-02-08T12:55:27.292Z,11.10
2023-02-08T12:58:07.432Z,10.50
2023-02-08T13:01:07.059Z,10.80
2023-02-08T13:03:48.723Z,9.45
2023-02-08T13:06:27.854Z,8.93
2023-02-08T13:09:02.909Z,8.45
2023-02-08T13:11:45.980Z,8.15
2023-02-08T13:14:51.392Z,7.70
2023-02-08T13:17:24.432Z,6.00
2023-02-08T13:20:04.429Z,5.70
2023-02-08T13:22:50.640Z,6.47
2023-02-08T13:25:33.059Z,6.63
2023-02-08T13:28:26.213Z,7.43
2023-02-08T13:31:27.589Z,6.15
2023-02-08T13:34:19.965Z,6.63
2023-02-08T13:37:27.357Z,5.70
2023-02-08T13:40:08.176Z,5.65
2023-02-08T13:42:42.972Z,7.22
2023-02-08T13:45:23.748Z,6.00
2023-02-08T13:48:00.201Z,6.45
2023-02-08T13:50:50.721Z,5.93
2023-02-08T13:53:40.853Z,6.70
2023-02-08T13:56:16.701Z,6.05
2023-02-08T13:59:04.581Z,5.95
2023-02-08T14:01:37.210Z,5.75
2023-02-08T14:04:36.449Z,5.45
2023-02-08T14:07:30.597Z,5.70
2023-02-08T14:10:11.534Z,6.32
2023-02-08T14:12:50.811Z,6.15
2023-02-08T14:15:28.070Z,6.07
2023-02-08T14:17:59.728Z,6.30
2023-02-08T14:20:35.117Z,6.10
2023-02-08T14:23:06.287Z,6.80
2023-02-08T14:25:45.191Z,6.40
2023-02-08T14:28:49.062Z,6.78
2023-02-08T14:31:22.996Z,7.20
2023-02-08T14:34:00.503Z,6.20
2023-02-08T14:36:35.130Z,6.60
2023-02-08T14:39:29.191Z,7.22
2023-02-08T14:42:06.691Z,6.72
2023-02-08T14:45:02.264Z,6.72
2023-02-08T14:48:20.774Z,7.00
2023-02-08T14:51:00.231Z,7.05
2023-02-08T14:53:44.292Z,6.57
2023-02-08T14:56:21.390Z,6.70
2023-02-08T14:59:02.425Z,6.40
2023-02-08T15:01:44.347Z,6.97
2023-02-08T15:04:24.358Z,7.15
2023-02-08T15:07:31.765Z,6.15
2023-02-08T15:10:06.118Z,6.45
2023-02-08T15:13:16.401Z,6.18
2023-02-08T15:16:05.952Z,8.02
2023-02-08T15:18:51.489Z,6.57
2023-02-08T15:21:38.177Z,6.82
2023-02-08T15:25:16.514Z,5.88
2023-02-08T15:28:15.707Z,6.80
2023-02-08T15:31:13.742Z,6.13
2023-02-08T15:34:02.571Z,6.55
2023-02-08T15:38:01.375Z,6.85
2023-02-08T15:41:25.398Z,5.65
2023-02-08T15:44:31.927Z,6.65
2023-02-08T15:47:16.649Z,6.85
2023-02-08T15:49:50.975Z,7.15
2023-02-08T15:52:23.713Z,6.40
2023-02-08T15:54:53.214Z,7.38
2023-02-08T15:57:35.960Z,9.07
2023-02-08T16:00:07.867Z,8.75
2023-02-08T16:02:38.277Z,8.30
2023-02-08T16:05:20.696Z,8.07
2023-02-08T16:07:51.856Z,8.52
2023-02-08T16:10:29.590Z,8.60
2023-02-08T16:13:00.408Z,11.10
2023-02-08T16:15:41.613Z,9.98
2023-02-08T16:18:35.004Z,10.07
2023-02-08T16:21:06.778Z,11.70
2023-02-08T16:23:40.087Z,11.50
2023-02-08T16:26:17.726Z,12.38
2023-02-08T16:28:58.844Z,10.80
2023-02-08T16:31:30.266Z,11.43
2023-02-08T16:34:01.626Z,11.02
2023-02-08T16:40:50.206Z,12.63
2023-02-08T16:43:20.887Z,12.52
2023-02-08T16:46:23.852Z,13.70
2023-02-08T16:48:54.810Z,13.65
2023-02-08T16:51:25.848Z,15.13
2023-02-08T16:53:57.784Z,15.35
2023-02-08T16:56:28.389Z,16.55
2023-02-08T16:58:56.710Z,18.67
2023-02-08T17:01:25.559Z,17.50
2023-02-08T17:03:54.205Z,19.77
2023-02-08T17:06:29.755Z,20.63
2023-02-08T17:08:58.484Z,19.30
2023-02-08T17:11:46.091Z,20.10
2023-02-08T17:14:14.477Z,21.98
2023-02-08T17:16:43.951Z,22.08
2023-02-08T17:19:17.885Z,21.33
2023-02-08T17:21:46.442Z,21.02
2023-02-08T17:24:14.814Z,21.70
2023-02-08T17:26:45.719Z,21.33
2023-02-08T17:29:14.247Z,20.60
2023-02-08T17:31:42.583Z,22.10
2023-02-08T17:34:11.044Z,22.42
2023-02-08T17:36:41.156Z,22.40
2023-02-08T17:39:12.559Z,20.27
2023-02-08T17:41:41.682Z,23.20
2023-02-08T17:44:12.944Z,23.10
2023-02-08T17:46:41.365Z,24.45
2023-02-08T17:49:09.725Z,24.67
2023-02-08T17:51:38.060Z,27.42
2023-02-08T17:54:06.865Z,24.58
2023-02-08T17:56:36.408Z,24.88
2023-02-08T17:59:05.554Z,26.20
2023-02-08T18:01:35.583Z,24.27
2023-02-08T18:04:04.332Z,23.42
2023-02-08T18:06:32.665Z,25.75
2023-02-08T18:09:01.083Z,25.20
2023-02-08T18:11:29.446Z,23.27
2023-02-08T18:13:59.771Z,23.63
2023-02-08T18:16:31.795Z,24.73
2023-02-08T18:19:01.932Z,23.67
2023-02-08T18:21:33.164Z,22.85
2023-02-08T18:24:07.151Z,24.92
2023-02-08T18:26:36.388Z,24.88
2023-02-08T18:29:04.950Z,25.33
2023-02-08T18:31:33.959Z,24.23
2023-02-08T18:34:04.628Z,25.70
2023-02-08T18:36:36.655Z,21.52
2023-02-08T18:39:05.576Z,21.77
2023-02-08T18:41:34.265Z,21.90
2023-02-08T18:44:03.221Z,21.80
2023-02-08T18:46:31.755Z,24.23
2023-02-08T18:49:02.780Z,26.92
2023-02-08T18:51:32.702Z,26.35
2023-02-08T18:54:04.466Z,25.77
2023-02-08T18:56:33.976Z,26.17
2023-02-08T18:59:08.923Z,25.92
2023-02-08T19:01:38.417Z,27.85
2023-02-08T19:04:14.254Z,28.65
2023-02-08T19:07:14.577Z,30.48
2023-02-08T19:09:45.819Z,31.05
2023-02-08T19:12:19.291Z,30.23
2023-02-08T19:14:54.123Z,34.08
2023-02-08T19:17:28.516Z,32.97
2023-02-08T19:20:16.562Z,35.45
2023-02-08T19:22:54.014Z,35.05
2023-02-08T19:25:26.401Z,35.95
2023-02-08T19:28:18.589Z,39.22
2023-02-08T19:31:14.395Z,35.70
2023-02-08T19:33:53.636Z,36.67
2023-02-08T19:36:41.740Z,36.92
2023-02-08T19:39:15.955Z,35.38
2023-02-08T19:41:53.957Z,37.33
2023-02-08T19:44:40.377Z,38.13
2023-02-08T19:47:19.496Z,35.88
2023-02-08T19:49:53.810Z,36.55
2023-02-08T19:52:26.695Z,35.95
2023-02-08T19:55:10.576Z,35.22
2023-02-08T19:57:55.540Z,34.92
2023-02-08T20:01:44.994Z,34.08
2023-02-08T20:04:51.556Z,33.60
2023-02-08T20:20:05.329Z,29.75
2023-02-08T20:23:22.706Z,31.17
2023-02-08T21:56:09.765Z,33.45
2023-02-08T22:03:38.837Z,32.03
2023-02-08T22:06:56.747Z,34.53
2023-02-08T22:10:18.888Z,35.88
2023-02-08T22:13:01.667Z,31.55
2023-02-08T22:15:42.560Z,32.33
2023-02-08T22:18:12.774Z,34.05
2023-02-08T22:20:41.644Z,34.40
2023-02-08T22:23:10.313Z,34.15
2023-02-08T22:25:42.215Z,36.92
2023-02-08T22:28:22.340Z,35.53
2023-02-08T22:31:13.988Z,36.50
2023-02-08T22:33:48.844Z,35.08
2023-02-08T22:36:17.447Z,36.17
2023-02-08T22:38:51.423Z,36.65
2023-02-08T22:41:27.328Z,34.67
2023-02-08T22:43:58.030Z,35.08
2023-02-08T22:46:29.730Z,30.83
2023-02-08T22:48:58.458Z,31.15
2023-02-08T22:51:27.164Z,34.25
2023-02-08T22:53:57.755Z,35.17
2023-02-08T22:56:26.689Z,30.38
2023-02-08T22:59:08.050Z,31.17
2023-02-08T23:01:36.801Z,33.38
2023-02-08T23:04:06.330Z,31.55
2023-02-08T23:06:39.437Z,32.17
2023-02-08T23:09:12.127Z,30.00
2023-02-08T23:11:41.642Z,32.20
2023-02-08T23:14:15.233Z,32.80
2023-02-08T23:16:46.993Z,32.15
2023-02-08T23:19:23.508Z,33.33
2023-02-08T23:21:55.829Z,34.90
2023-02-08T23:24:24.927Z,32.90
2023-02-08T23:26:54.075Z,32.38
2023-02-08T23:29:58.444Z,32.95
2023-02-08T23:32:47.974Z,31.50
2023-02-08T23:35:52.578Z,31.80
2023-02-08T23:38:30.118Z,32.00
2023-02-08T23:41:04.989Z,32.25
2023-02-08T23:43:34.896Z,33.05
2023-02-08T23:46:21.877Z,32.38
2023-02-08T23:49:09.056Z,33.30
2023-02-08T23:51:44.313Z,31.77
2023-02-08T23:54:32.213Z,31.02
2023-02-08T23:57:21.984Z,31.60
